Time;durP1;ratioP1;P1;durP2;ratioP2;P2;SDS_P1;SDS_P2;PMS_P1;PMS_P2;Temp;Humidity;BMP_temperature;BMP_pressure;BME280_temperature;BME280_humidity;BME280_pressure;Samples;Min_cycle;Max_cycle;Signal;HPM_P1;HPM_P2
2022/01/17 00:02:25;;;;;;;28.30;11.30;;;0.80;99.90;;;;;;4965076;29;20050;-79
2022/01/17 00:04:51;;;;;;;28.67;11.13;;;1.00;99.90;;;;;;4939048;29;20023;-76
2022/01/17 00:07:17;;;;;;;25.77;11.30;;;0.70;99.90;;;;;;4942275;29;20107;-77
2022/01/17 00:09:43;;;;;;;33.50;11.77;;;1.20;99.90;;;;;;4960951;29;20040;-77
2022/01/17 00:12:10;;;;;;;31.20;11.75;;;1.10;99.90;;;;;;4959940;29;20028;-79
2022/01/17 00:14:40;;;;;;;29.63;12.15;;;0.00;99.90;;;;;;4942152;29;20120;-78
2022/01/17 00:17:29;;;;;;;31.92;12.80;;;1.50;99.90;;;;;;4956981;29;20020;-77
2022/01/17 00:19:56;;;;;;;27.40;10.93;;;0.80;99.90;;;;;;4938098;29;20038;-78
2022/01/17 00:22:23;;;;;;;30.38;11.40;;;0.10;99.90;;;;;;4955793;29;20578;-80
2022/01/17 00:24:54;;;;;;;36.40;13.55;;;1.00;99.90;;;;;;4936451;29;20488;-79
2022/01/17 00:27:19;;;;;;;34.38;10.90;;;1.00;99.90;;;;;;4937317;29;20230;-78
2022/01/17 00:29:45;;;;;;;31.17;12.45;;;0.60;99.90;;;;;;4944646;29;20209;-77
2022/01/17 00:32:11;;;;;;;35.88;12.70;;;0.90;99.90;;;;;;4956942;29;20066;-79
2022/01/17 00:34:36;;;;;;;33.15;11.45;;;0.70;99.90;;;;;;4955746;28;20105;-81
2022/01/17 00:37:02;;;;;;;29.23;10.98;;;1.10;99.90;;;;;;4951256;28;20024;-78
2022/01/17 00:39:28;;;;;;;33.60;11.90;;;0.20;99.90;;;;;;4954246;29;20035;-79
2022/01/17 00:41:53;;;;;;;31.25;11.05;;;1.20;99.90;;;;;;4955671;29;20365;-79
2022/01/17 00:44:22;;;;;;;27.80;11.77;;;0.90;99.90;;;;;;4956051;29;20452;-78
2022/01/17 00:46:50;;;;;;;27.63;10.63;;;1.00;99.90;;;;;;4956232;28;20019;-78
2022/01/17 00:49:15;;;;;;;38.25;11.63;;;0.20;99.90;;;;;;4958473;28;20058;-80
2022/01/17 00:51:42;;;;;;;27.65;11.68;;;1.00;99.90;;;;;;4957912;29;20011;-78
2022/01/17 00:54:08;;;;;;;30.10;12.93;;;0.20;99.90;;;;;;4954697;28;20023;-77
2022/01/17 00:56:34;;;;;;;31.38;12.98;;;0.40;99.90;;;;;;4953096;28;20059;-79
2022/01/17 00:59:00;;;;;;;34.90;12.50;;;0.20;99.90;;;;;;4950178;29;20024;-78
2022/01/17 01:01:26;;;;;;;32.88;12.20;;;0.90;99.90;;;;;;4951447;28;20457;-78
2022/01/17 01:03:51;;;;;;;32.05;12.27;;;1.30;99.90;;;;;;4950310;29;20288;-78
2022/01/17 01:06:17;;;;;;;24.50;12.80;;;1.00;99.90;;;;;;4951077;28;20027;-78
2022/01/17 01:08:43;;;;;;;31.40;13.38;;;0.70;99.90;;;;;;4949810;29;20046;-78
2022/01/17 01:11:08;;;;;;;40.65;13.70;;;1.20;99.90;;;;;;4949969;29;20055;-78
2022/01/17 01:13:35;;;;;;;35.47;11.32;;;1.20;99.90;;;;;;4951136;29;20066;-78
2022/01/17 01:18:38;;;;;;;34.17;13.73;;;1.10;99.90;;;;;;4952869;29;20392;-79
2022/01/17 01:29:19;;;;;;;31.52;12.00;;;0.40;99.90;;;;;;4954063;29;20046;-78
2022/01/17 01:31:53;;;;;;;34.03;12.90;;;1.10;99.90;;;;;;4953519;28;20027;-78
2022/01/17 01:34:27;;;;;;;34.17;11.68;;;0.70;99.90;;;;;;4954078;28;20019;-78
2022/01/17 01:36:53;;;;;;;21.05;8.52;;;0.80;99.90;;;;;;4953776;28;20019;-78
2022/01/17 01:39:23;;;;;;;20.48;9.13;;;0.50;99.90;;;;;;4952247;29;20098;-78
2022/01/17 01:41:49;;;;;;;27.08;10.45;;;1.40;99.90;;;;;;4952321;29;20384;-78
2022/01/17 01:44:21;;;;;;;21.67;9.32;;;0.90;99.90;;;;;;4952000;28;20061;-78
2022/01/17 01:46:48;;;;;;;19.73;7.22;;;1.00;99.90;;;;;;4953397;28;20506;-78
2022/01/17 01:49:15;;;;;;;22.95;9.40;;;1.00;99.90;;;;;;4951409;28;20031;-79
2022/01/17 01:51:42;;;;;;;18.98;7.32;;;1.30;99.90;;;;;;4953573;28;20031;-78
2022/01/17 01:54:08;;;;;;;24.45;8.63;;;1.40;99.90;;;;;;4953532;28;20179;-78
2022/01/17 01:56:43;;;;;;;23.92;8.45;;;1.40;99.90;;;;;;4951902;29;20023;-78
2022/01/17 01:59:09;;;;;;;19.35;8.10;;;1.20;99.90;;;;;;4953314;28;20076;-77
2022/01/17 02:01:36;;;;;;;21.40;8.90;;;1.20;99.90;;;;;;4951701;29;20388;-78
2022/01/17 02:04:02;;;;;;;17.45;8.38;;;1.30;99.90;;;;;;4952230;29;20172;-78
2022/01/17 02:06:28;;;;;;;21.33;8.75;;;1.30;99.90;;;;;;4953253;28;20054;-78
2022/01/17 02:08:54;;;;;;;21.23;8.35;;;1.20;99.90;;;;;;4952716;29;20480;-78
2022/01/17 02:11:20;;;;;;;20.17;8.43;;;1.20;99.90;;;;;;4953141;29;20020;-78
2022/01/17 02:13:46;;;;;;;19.50;8.65;;;1.20;99.90;;;;;;4951654;29;20054;-78
2022/01/17 02:16:15;;;;;;;21.70;7.97;;;1.10;99.90;;;;;;4951104;29;20539;-78
2022/01/17 02:18:43;;;;;;;21.35;9.00;;;1.10;99.90;;;;;;4952269;28;20020;-78
2022/01/17 02:23:39;;;;;;;22.15;7.95;;;1.20;99.90;;;;;;4951144;28;20027;-78
2022/01/17 02:26:05;;;;;;;21.67;9.68;;;1.20;99.90;;;;;;4951069;28;20039;-77
2022/01/17 02:28:35;;;;;;;19.85;7.85;;;1.20;99.90;;;;;;4951078;29;20031;-79
2022/01/17 02:31:05;;;;;;;16.95;7.35;;;1.30;99.90;;;;;;4950834;28;20058;-78
2022/01/17 02:33:32;;;;;;;18.88;8.35;;;1.30;99.90;;;;;;4951332;28;20019;-77
2022/01/17 02:35:57;;;;;;;20.13;8.20;;;1.20;99.90;;;;;;4949170;29;20033;-78
2022/01/17 02:38:23;;;;;;;22.25;9.40;;;1.20;99.90;;;;;;4952455;28;20023;-78
2022/01/17 02:40:50;;;;;;;21.60;8.23;;;1.30;99.90;;;;;;4952939;29;20035;-81
2022/01/17 02:43:18;;;;;;;21.88;7.95;;;1.30;99.90;;;;;;4952372;28;20075;-78
2022/01/17 02:48:25;;;;;;;18.73;7.88;;;1.20;99.90;;;;;;4952450;29;20027;-78
2022/01/17 02:50:50;;;;;;;16.60;8.27;;;1.30;99.90;;;;;;4952095;28;20051;-78
2022/01/17 02:53:17;;;;;;;20.38;6.47;;;1.30;99.90;;;;;;4952377;28;20361;-77
2022/01/17 02:55:54;;;;;;;16.23;6.80;;;1.20;99.90;;;;;;4952202;28;20260;-78
2022/01/17 02:58:22;;;;;;;14.93;7.93;;;1.30;99.90;;;;;;4951921;28;20500;-77
2022/01/17 03:00:53;;;;;;;17.08;8.52;;;1.20;99.90;;;;;;4951843;28;20027;-78
2022/01/17 03:03:21;;;;;;;15.45;7.00;;;1.10;99.90;;;;;;4951922;28;20023;-78
2022/01/17 03:05:48;;;;;;;18.42;7.20;;;1.10;99.90;;;;;;4952143;28;20024;-78
2022/01/17 03:08:15;;;;;;;16.50;7.72;;;1.10;99.90;;;;;;4951847;28;20083;-78
2022/01/17 03:10:43;;;;;;;22.13;8.13;;;1.00;99.90;;;;;;4950523;29;20043;-78
2022/01/17 03:13:17;;;;;;;23.70;8.50;;;1.10;99.90;;;;;;4951953;28;20019;-78
2022/01/17 03:15:45;;;;;;;24.42;8.43;;;1.00;99.90;;;;;;4967111;28;20027;-79
2022/01/17 03:18:11;;;;;;;24.52;8.32;;;1.10;99.90;;;;;;4950730;29;20395;-79
2022/01/17 03:20:37;;;;;;;18.33;8.18;;;1.10;99.90;;;;;;4951800;29;20043;-78
2022/01/17 03:23:05;;;;;;;23.48;9.45;;;1.00;99.90;;;;;;4950522;29;20028;-78
2022/01/17 03:25:30;;;;;;;21.88;8.65;;;1.00;99.90;;;;;;4951883;28;20024;-78
2022/01/17 03:27:56;;;;;;;18.83;8.38;;;0.90;99.90;;;;;;4950511;29;20024;-78
2022/01/17 03:30:23;;;;;;;26.75;8.75;;;0.90;99.90;;;;;;4951809;28;20050;-78
2022/01/17 03:32:49;;;;;;;21.05;9.45;;;0.90;99.90;;;;;;4951496;28;20272;-78
2022/01/17 03:35:15;;;;;;;20.70;8.63;;;0.80;99.90;;;;;;4951935;28;20128;-78
2022/01/17 03:37:40;;;;;;;21.55;8.82;;;1.00;99.90;;;;;;4951878;28;20503;-78
2022/01/17 03:40:07;;;;;;;18.58;7.43;;;1.10;99.90;;;;;;4951701;29;20388;-78
2022/01/17 03:42:33;;;;;;;18.00;7.22;;;0.60;99.90;;;;;;4951481;28;20030;-78
2022/01/17 03:45:00;;;;;;;18.30;8.68;;;1.00;99.90;;;;;;4951713;29;20031;-77
2022/01/17 03:47:26;;;;;;;22.73;8.48;;;1.20;99.90;;;;;;4951253;28;20019;-78
2022/01/17 03:49:52;;;;;;;23.85;9.05;;;0.80;99.90;;;;;;4950550;29;20554;-78
2022/01/17 03:52:18;;;;;;;17.65;6.95;;;0.70;99.90;;;;;;4950304;29;20023;-78
2022/01/17 03:54:44;;;;;;;23.23;9.00;;;0.70;99.90;;;;;;4950446;29;20038;-78
2022/01/17 03:57:09;;;;;;;28.38;10.00;;;0.60;99.90;;;;;;4951791;29;20110;-78
2022/01/17 03:59:35;;;;;;;20.67;9.95;;;0.60;99.90;;;;;;4951458;29;20023;-78
2022/01/17 04:02:02;;;;;;;28.55;8.60;;;1.40;99.90;;;;;;4951022;29;20106;-78
2022/01/17 04:04:27;;;;;;;24.45;8.98;;;0.50;99.90;;;;;;4951432;28;20031;-78
2022/01/17 04:06:53;;;;;;;24.67;9.13;;;0.60;99.90;;;;;;4951309;29;20019;-78
2022/01/17 04:09:19;;;;;;;18.50;6.53;;;0.70;99.90;;;;;;4951612;29;20035;-78
2022/01/17 04:11:45;;;;;;;21.80;8.32;;;1.10;99.90;;;;;;4950181;28;20491;-78
2022/01/17 04:14:10;;;;;;;20.80;8.93;;;0.50;99.90;;;;;;4954473;29;20159;-78
2022/01/17 04:16:36;;;;;;;19.70;8.23;;;0.50;99.90;;;;;;4954763;29;20031;-78
2022/01/17 04:19:03;;;;;;;22.55;8.65;;;1.00;99.90;;;;;;4954835;28;20019;-77
2022/01/17 04:21:34;;;;;;;19.70;8.57;;;0.90;99.90;;;;;;4954756;28;20085;-78
2022/01/17 04:24:00;;;;;;;18.80;8.35;;;0.90;99.90;;;;;;4955219;28;20031;-78
2022/01/17 04:26:26;;;;;;;16.15;7.35;;;0.40;99.90;;;;;;4953328;29;20489;-78
2022/01/17 04:28:52;;;;;;;21.17;8.48;;;1.10;99.90;;;;;;4954697;28;20058;-78
2022/01/17 04:31:18;;;;;;;13.40;7.10;;;0.40;99.90;;;;;;4954477;29;20066;-78
2022/01/17 04:33:44;;;;;;;18.92;6.82;;;1.00;99.90;;;;;;4954493;28;20027;-78
2022/01/17 04:36:09;;;;;;;21.02;8.55;;;0.30;99.90;;;;;;4954597;28;20074;-78
2022/01/17 04:38:36;;;;;;;16.35;7.57;;;0.30;99.90;;;;;;4953208;29;20015;-78
2022/01/17 04:41:06;;;;;;;18.95;8.30;;;0.90;99.90;;;;;;4954392;28;20111;-78
2022/01/17 04:46:04;;;;;;;15.38;7.22;;;1.10;99.90;;;;;;4954106;28;19914;-78
2022/01/17 04:48:31;;;;;;;19.88;7.38;;;0.20;99.90;;;;;;4954214;28;20042;-78
2022/01/17 04:50:58;;;;;;;20.58;9.38;;;0.20;99.90;;;;;;4954345;28;20855;-78
2022/01/17 04:53:25;;;;;;;15.00;6.10;;;0.40;99.90;;;;;;4954401;28;20114;-78
2022/01/17 04:55:51;;;;;;;26.67;7.40;;;0.10;99.90;;;;;;4954418;28;20063;-78
2022/01/17 04:58:17;;;;;;;16.85;6.10;;;0.10;99.90;;;;;;4954191;28;20058;-78
2022/01/17 05:00:47;;;;;;;12.73;5.68;;;0.10;99.90;;;;;;4953839;28;20030;-78
2022/01/17 05:03:15;;;;;;;18.33;7.25;;;0.10;99.90;;;;;;4953784;28;20027;-78
2022/01/17 05:05:40;;;;;;;15.32;7.32;;;0.00;99.90;;;;;;4953933;28;20028;-79
2022/01/17 05:08:06;;;;;;;14.02;6.93;;;0.00;99.90;;;;;;4953946;29;20314;-78
2022/01/17 05:10:32;;;;;;;19.05;6.13;;;0.00;99.90;;;;;;4954207;28;20035;-78
2022/01/17 05:12:58;;;;;;;17.35;6.13;;;-0.10;99.90;;;;;;4954118;29;20024;-78
2022/01/17 05:15:32;;;;;;;15.55;7.75;;;1.10;99.90;;;;;;4952301;29;20138;-78
2022/01/17 05:20:40;;;;;;;13.38;7.15;;;0.10;99.90;;;;;;4953729;28;20261;-78
2022/01/17 05:23:06;;;;;;;17.20;6.80;;;0.00;99.90;;;;;;4952463;29;20020;-78
2022/01/17 05:25:32;;;;;;;16.38;6.72;;;-2.40;99.90;;;;;;4951342;28;20074;-78
2022/01/17 05:27:58;;;;;;;14.25;6.97;;;0.10;99.90;;;;;;4952156;29;20023;-78
2022/01/17 05:30:24;;;;;;;15.00;6.63;;;-0.40;99.90;;;;;;4953593;29;20054;-78
2022/01/17 05:32:51;;;;;;;14.38;7.10;;;-0.30;99.90;;;;;;4952194;29;20555;-78
2022/01/17 05:35:18;;;;;;;16.38;7.55;;;-0.50;99.90;;;;;;4952078;28;20027;-78
2022/01/17 05:37:45;;;;;;;17.27;7.30;;;-0.40;99.90;;;;;;4952020;29;20467;-78
2022/01/17 05:40:14;;;;;;;17.27;7.07;;;0.90;99.90;;;;;;4953609;28;20027;-78
2022/01/17 05:42:40;;;;;;;24.33;8.77;;;-0.30;99.90;;;;;;4953412;28;20035;-78
2022/01/17 05:45:08;;;;;;;19.27;7.53;;;-0.10;99.90;;;;;;4952174;29;20031;-78
2022/01/17 05:47:35;;;;;;;17.15;6.82;;;-0.20;99.90;;;;;;4951721;29;20035;-78
2022/01/17 05:50:03;;;;;;;14.75;6.93;;;1.00;99.90;;;;;;4952132;29;20415;-78
2022/01/17 05:52:29;;;;;;;21.83;8.50;;;-0.30;99.90;;;;;;4953344;28;20054;-78
2022/01/17 05:54:55;;;;;;;13.88;6.05;;;0.90;99.90;;;;;;4953417;28;20362;-78
2022/01/17 05:57:21;;;;;;;15.43;6.93;;;-0.30;99.90;;;;;;4951613;28;20033;-78
2022/01/17 05:59:47;;;;;;;17.15;8.13;;;0.60;99.90;;;;;;4953114;29;20023;-78
2022/01/17 06:02:13;;;;;;;16.67;6.18;;;0.70;99.90;;;;;;4952888;28;20023;-78
2022/01/17 06:04:39;;;;;;;12.40;5.95;;;1.00;99.90;;;;;;4953292;28;20031;-78
2022/01/17 06:07:05;;;;;;;21.38;6.70;;;1.20;99.90;;;;;;4951620;29;20271;-78
2022/01/17 06:09:31;;;;;;;20.33;8.75;;;1.10;99.90;;;;;;4951317;29;20472;-78
2022/01/17 06:11:57;;;;;;;15.43;6.88;;;1.10;99.90;;;;;;4951759;29;20444;-78
2022/01/17 06:14:23;;;;;;;11.27;6.13;;;0.60;99.90;;;;;;4960869;28;20023;-79
2022/01/17 06:16:50;;;;;;;13.07;6.57;;;-0.50;99.90;;;;;;4983382;28;20043;-79
2022/01/17 06:19:16;;;;;;;12.27;6.13;;;-0.50;99.90;;;;;;4984473;28;20027;-79
2022/01/17 06:21:42;;;;;;;16.98;6.22;;;-0.30;99.90;;;;;;4980773;28;20322;-79
2022/01/17 06:24:11;;;;;;;19.95;7.65;;;-0.60;99.90;;;;;;4983555;28;20257;-79
2022/01/17 06:26:39;;;;;;;20.90;7.47;;;-0.70;99.90;;;;;;4984283;28;20030;-79
2022/01/17 06:29:06;;;;;;;18.58;7.88;;;-0.80;99.90;;;;;;4987287;28;20083;-79
2022/01/17 06:31:31;;;;;;;19.50;8.15;;;-0.80;99.90;;;;;;4967339;28;20513;-79
2022/01/17 06:33:57;;;;;;;15.75;7.15;;;-0.20;99.90;;;;;;4983603;28;20065;-82
2022/01/17 06:36:23;;;;;;;13.77;6.53;;;-0.80;99.90;;;;;;4987607;28;20058;-79
2022/01/17 06:38:49;;;;;;;19.23;7.20;;;-1.10;99.90;;;;;;4985582;28;20038;-80
2022/01/17 06:41:17;;;;;;;21.20;7.85;;;-1.20;99.90;;;;;;4994135;28;20086;-80
2022/01/17 06:43:43;;;;;;;15.55;7.05;;;-1.30;99.90;;;;;;4971832;28;20081;-85
2022/01/17 06:46:09;;;;;;;20.30;9.30;;;-0.90;99.90;;;;;;4980944;28;20034;-78
2022/01/17 06:48:34;;;;;;;15.23;7.45;;;-1.10;99.90;;;;;;4969303;28;20035;-81
2022/01/17 06:51:00;;;;;;;20.17;8.02;;;-0.90;99.90;;;;;;4958906;28;20061;-86
2022/01/17 06:53:27;;;;;;;13.95;7.97;;;-0.40;99.90;;;;;;4963787;28;20311;-84
2022/01/17 06:55:54;;;;;;;21.05;9.13;;;0.80;99.90;;;;;;4963697;28;20106;-81
2022/01/17 06:58:20;;;;;;;15.73;7.22;;;-0.90;99.90;;;;;;4967363;28;20019;-80
2022/01/17 07:00:46;;;;;;;20.25;7.28;;;-0.80;99.90;;;;;;4973514;28;20357;-79
2022/01/17 07:03:12;;;;;;;21.25;8.73;;;-0.20;99.90;;;;;;4991815;28;20190;-79
2022/01/17 07:05:37;;;;;;;19.10;8.55;;;0.20;99.90;;;;;;4974198;28;20090;-80
2022/01/17 07:08:03;;;;;;;17.42;7.50;;;-0.70;99.90;;;;;;4974208;28;20074;-80
2022/01/17 07:10:29;;;;;;;14.77;6.60;;;-0.60;99.90;;;;;;4975760;28;20073;-79
2022/01/17 07:12:56;;;;;;;18.08;8.40;;;0.80;99.90;;;;;;4987502;28;20074;-80
2022/01/17 07:15:22;;;;;;;19.70;9.50;;;0.80;99.90;;;;;;4989698;28;20090;-80
2022/01/17 07:17:48;;;;;;;19.33;9.73;;;-0.70;99.90;;;;;;4990877;28;20027;-80
2022/01/17 07:20:13;;;;;;;19.98;7.97;;;-0.40;99.90;;;;;;4979105;28;20106;-79
2022/01/17 07:22:39;;;;;;;19.38;8.55;;;1.00;99.90;;;;;;4985702;28;20030;-78
2022/01/17 07:25:25;;;;;;;20.15;7.60;;;-0.70;99.90;;;;;;4971740;28;20026;-79
2022/01/17 07:27:52;;;;;;;17.38;6.95;;;-0.60;99.90;;;;;;4993677;28;20063;-81
2022/01/17 07:30:21;;;;;;;18.85;7.20;;;-0.50;99.90;;;;;;4995374;28;20035;-81
2022/01/17 07:32:50;;;;;;;14.45;6.28;;;-0.40;99.90;;;;;;4993206;28;20058;-79
2022/01/17 07:35:17;;;;;;;17.30;6.72;;;-0.30;99.90;;;;;;4993290;28;20006;-80
2022/01/17 07:37:42;;;;;;;18.17;6.75;;;0.90;99.90;;;;;;4995026;28;20010;-82
2022/01/17 07:40:09;;;;;;;12.88;6.43;;;-0.20;99.90;;;;;;4975563;28;20050;-80
2022/01/17 07:42:35;;;;;;;14.98;6.53;;;-0.10;99.90;;;;;;4991892;28;20026;-79
2022/01/17 07:45:09;;;;;;;14.45;7.18;;;-0.40;99.90;;;;;;4986783;28;20094;-79
2022/01/17 07:50:19;;;;;;;16.67;7.05;;;0.20;99.90;;;;;;4993186;28;20062;-81
2022/01/17 07:52:47;;;;;;;19.58;7.72;;;0.20;99.90;;;;;;4979016;28;20033;-79
2022/01/17 07:55:14;;;;;;;16.45;5.90;;;0.30;99.90;;;;;;4973956;28;20755;-80
2022/01/17 07:57:43;;;;;;;20.10;7.63;;;0.30;99.90;;;;;;4973704;28;20046;-80
2022/01/17 08:00:12;;;;;;;16.65;7.80;;;0.40;99.90;;;;;;4955884;29;20019;-78
2022/01/17 08:02:38;;;;;;;18.85;6.90;;;0.20;99.90;;;;;;4957567;29;20035;-79
2022/01/17 08:05:04;;;;;;;21.38;8.60;;;0.30;99.90;;;;;;4953057;29;20428;-76
2022/01/17 08:07:30;;;;;;;13.32;6.68;;;0.30;99.90;;;;;;4961376;29;20055;-77
2022/01/17 08:09:56;;;;;;;13.10;6.20;;;0.30;99.90;;;;;;4942267;28;20070;-75
2022/01/17 08:12:22;;;;;;;17.15;7.05;;;0.30;99.90;;;;;;4962792;28;20027;-78
2022/01/17 08:14:48;;;;;;;23.75;7.30;;;0.80;99.90;;;;;;4967638;28;20022;-76
2022/01/17 08:17:14;;;;;;;17.42;6.97;;;0.40;99.90;;;;;;4959233;28;20419;-78
2022/01/17 08:19:39;;;;;;;21.73;8.02;;;0.50;99.90;;;;;;4967518;28;20027;-76
2022/01/17 08:22:06;;;;;;;17.45;6.95;;;0.50;99.90;;;;;;4959213;28;20436;-77
2022/01/17 08:24:33;;;;;;;14.60;7.35;;;0.70;99.90;;;;;;4951149;29;20715;-75
2022/01/17 08:27:00;;;;;;;17.63;7.38;;;0.80;99.90;;;;;;4950681;29;20051;-77
2022/01/17 08:29:27;;;;;;;17.17;6.97;;;0.90;99.90;;;;;;4935275;29;20536;-76
2022/01/17 08:31:54;;;;;;;16.83;7.18;;;0.80;99.90;;;;;;4951855;29;20082;-79
2022/01/17 08:34:20;;;;;;;16.00;7.22;;;0.80;99.90;;;;;;4953155;29;20023;-76
2022/01/17 08:36:47;;;;;;;17.13;7.38;;;0.90;99.90;;;;;;4934813;29;20078;-76
2022/01/17 08:39:14;;;;;;;16.63;7.78;;;1.20;99.90;;;;;;4951220;29;20035;-76
2022/01/17 08:41:42;;;;;;;18.88;7.97;;;1.20;99.90;;;;;;4951351;29;20114;-79
2022/01/17 08:44:09;;;;;;;13.90;6.45;;;1.40;99.90;;;;;;4933155;29;20027;-77
2022/01/17 08:46:35;;;;;;;19.88;7.60;;;1.50;99.90;;;;;;4949390;29;20485;-78
2022/01/17 08:49:01;;;;;;;20.25;8.18;;;1.50;99.90;;;;;;4949594;29;20049;-77
2022/01/17 08:51:26;;;;;;;20.08;6.95;;;1.60;99.90;;;;;;4932426;29;20031;-77
2022/01/17 08:53:52;;;;;;;21.88;8.60;;;1.40;99.90;;;;;;4948998;29;20035;-77
2022/01/17 08:56:19;;;;;;;24.52;8.57;;;1.50;99.90;;;;;;4949142;29;20027;-77
2022/01/17 08:58:45;;;;;;;21.13;8.10;;;1.50;99.90;;;;;;4950429;28;20094;-77
2022/01/17 09:01:13;;;;;;;21.40;9.27;;;1.70;99.90;;;;;;4951235;29;20586;-78
2022/01/17 09:03:40;;;;;;;22.43;11.10;;;1.80;99.90;;;;;;4952638;29;20045;-77
2022/01/17 09:06:06;;;;;;;16.90;8.75;;;1.90;99.90;;;;;;4953190;29;20023;-77
2022/01/17 09:08:32;;;;;;;19.65;8.65;;;1.90;99.90;;;;;;4952394;29;20151;-76
2022/01/17 09:10:58;;;;;;;23.33;10.27;;;1.80;99.90;;;;;;4951274;29;20407;-78
2022/01/17 09:13:25;;;;;;;15.43;7.97;;;1.80;99.90;;;;;;4950387;29;20582;-80
2022/01/17 09:15:52;;;;;;;14.60;6.07;;;1.80;99.90;;;;;;4952911;29;20069;-80
2022/01/17 09:18:20;;;;;;;17.98;7.53;;;2.00;99.90;;;;;;4936306;29;20042;-81
2022/01/17 09:20:47;;;;;;;15.30;7.80;;;2.10;99.90;;;;;;4940351;29;20051;-79
2022/01/17 09:23:13;;;;;;;17.15;6.97;;;2.10;99.90;;;;;;4940027;29;20031;-80
2022/01/17 09:25:39;;;;;;;17.67;7.18;;;2.20;99.90;;;;;;4939583;29;20027;-82
2022/01/17 09:28:05;;;;;;;16.08;7.25;;;2.40;99.90;;;;;;4938275;29;20559;-80
2022/01/17 09:30:31;;;;;;;16.20;7.13;;;2.50;99.90;;;;;;4939199;29;20106;-81
2022/01/17 09:32:57;;;;;;;18.02;7.93;;;2.60;99.90;;;;;;4919649;29;20050;-80
2022/01/17 09:35:23;;;;;;;23.05;7.18;;;2.70;99.90;;;;;;4951812;29;20480;-78
2022/01/17 09:37:50;;;;;;;13.50;7.30;;;2.70;99.90;;;;;;4953836;29;20020;-78
2022/01/17 09:40:19;;;;;;;20.33;8.35;;;2.70;99.90;;;;;;4954675;28;20058;-80
2022/01/17 09:42:45;;;;;;;19.27;8.10;;;2.90;99.90;;;;;;4951964;28;20034;-78
2022/01/17 09:45:14;;;;;;;17.08;7.97;;;3.00;99.90;;;;;;4961837;29;20039;-79
2022/01/17 09:47:41;;;;;;;15.38;6.82;;;3.00;99.90;;;;;;4959251;29;20030;-79
2022/01/17 09:50:12;;;;;;;16.30;8.15;;;3.20;99.90;;;;;;4958313;29;20075;-80
2022/01/17 09:52:46;;;;;;;12.27;6.18;;;3.30;99.90;;;;;;4937738;29;20055;-82
2022/01/17 09:55:22;;;;;;;15.35;6.82;;;3.40;99.90;;;;;;4946783;29;20031;-83
2022/01/17 09:57:55;;;;;;;20.95;7.05;;;3.40;99.90;;;;;;4941355;29;20027;-81
2022/01/17 10:00:26;;;;;;;13.98;6.80;;;3.40;99.90;;;;;;4939251;29;20563;-79
2022/01/17 10:02:53;;;;;;;17.65;6.63;;;3.40;99.90;;;;;;4941609;29;20038;-79
2022/01/17 10:05:20;;;;;;;11.48;6.18;;;3.50;99.90;;;;;;4941869;29;20031;-80
2022/01/17 10:08:05;;;;;;;11.88;6.07;;;3.70;99.90;;;;;;4959274;29;20027;-80
2022/01/17 10:10:45;;;;;;;13.20;5.95;;;2.20;99.90;;;;;;4959108;28;20516;-78
2022/01/17 10:13:10;;;;;;;12.02;6.43;;;4.20;99.90;;;;;;4940186;29;20031;-79
2022/01/17 10:15:48;;;;;;;14.85;6.60;;;4.40;99.90;;;;;;4958414;29;20034;-79
2022/01/17 10:19:06;;;;;;;11.40;5.82;;;4.50;99.90;;;;;;4961724;28;20046;-79
2022/01/17 10:21:53;;;;;;;13.13;6.43;;;4.70;99.90;;;;;;4957397;29;20066;-79
2022/01/17 10:35:31;;;;;;;11.25;5.32;;;5.10;99.90;;;;;;4973097;28;20038;-80
2022/01/17 10:38:05;;;;;;;9.55;4.68;;;4.90;99.90;;;;;;4973227;28;20031;-81
2022/01/17 10:40:50;;;;;;;9.55;4.65;;;5.00;99.90;;;;;;4971000;28;20070;-79
2022/01/17 10:43:34;;;;;;;8.57;4.03;;;5.00;99.90;;;;;;4971213;28;20082;-81
2022/01/17 10:46:06;;;;;;;9.15;4.50;;;5.10;99.90;;;;;;4964660;28;20030;-82
2022/01/17 10:48:35;;;;;;;12.07;5.03;;;5.20;99.90;;;;;;4991714;28;20011;-79
2022/01/17 10:51:02;;;;;;;9.10;3.57;;;5.20;99.90;;;;;;4977302;28;20110;-79
2022/01/17 10:53:28;;;;;;;9.15;5.35;;;5.20;99.90;;;;;;4994547;28;20026;-79
2022/01/17 10:55:57;;;;;;;13.40;6.78;;;5.00;99.90;;;;;;4995673;28;20002;-78
2022/01/17 10:58:44;;;;;;;10.13;6.45;;;4.90;99.90;;;;;;4996918;28;20015;-81
2022/01/17 11:01:16;;;;;;;8.00;3.38;;;5.10;99.90;;;;;;4980097;28;20010;-79
2022/01/17 11:04:03;;;;;;;6.47;3.75;;;5.10;99.90;;;;;;4990616;28;20078;-80
2022/01/17 11:06:29;;;;;;;2.80;2.47;;;5.20;99.90;;;;;;4981117;28;20078;-81
2022/01/17 11:09:12;;;;;;;4.65;2.70;;;5.30;99.90;;;;;;4981259;28;20018;-79
2022/01/17 11:11:40;;;;;;;3.83;2.08;;;5.30;99.90;;;;;;4998378;28;20010;-79
2022/01/17 11:14:09;;;;;;;3.55;2.65;;;5.20;99.90;;;;;;4979556;28;20023;-79
2022/01/17 11:16:37;;;;;;;2.67;2.00;;;5.30;99.90;;;;;;4998193;28;20042;-79
2022/01/17 11:20:02;;;;;;;2.92;1.73;;;5.30;99.90;;;;;;4998714;28;20019;-81
2022/01/17 11:21:50;;;;;;;3.83;1.83;;;5.40;99.90;;;;;;4998800;28;20067;-79
2022/01/17 11:24:24;;;;;;;5.57;2.72;;;5.40;99.90;;;;;;5003118;28;20019;-79
2022/01/17 11:26:50;;;;;;;4.18;2.80;;;5.80;99.90;;;;;;4986609;28;20034;-78
2022/01/17 11:29:17;;;;;;;5.65;3.05;;;6.10;99.90;;;;;;4984892;28;20123;-78
2022/01/17 11:32:24;;;;;;;5.32;3.17;;;6.30;99.90;;;;;;5002105;28;20024;-79
2022/01/17 11:35:18;;;;;;;1.60;1.20;;;6.40;99.90;;;;;;5002379;28;20090;-77
2022/01/17 11:37:47;;;;;;;1.52;1.15;;;6.30;99.90;;;;;;4996190;23;20451;-78
2022/01/17 11:42:50;;;;;;;1.45;1.10;;;6.00;99.90;;;;;;5000511;28;20055;-78
2022/01/17 11:45:22;;;;;;;1.70;1.20;;;6.00;99.90;;;;;;5002668;28;20013;-79
2022/01/17 11:47:52;;;;;;;1.40;1.20;;;6.10;99.90;;;;;;5001765;28;20027;-77
2022/01/17 11:50:34;;;;;;;1.20;1.10;;;6.00;99.90;;;;;;5002150;28;20032;-79
2022/01/17 11:53:03;;;;;;;2.60;0.85;;;6.20;99.90;;;;;;5002123;28;20004;-79
2022/01/17 11:55:42;;;;;;;2.22;1.00;;;6.20;99.90;;;;;;5001258;28;20063;-78
2022/01/17 11:58:25;;;;;;;1.25;0.90;;;6.30;99.90;;;;;;5001726;28;20074;-80
2022/01/17 12:00:57;;;;;;;1.23;1.13;;;6.10;99.90;;;;;;5009449;28;20084;-78
2022/01/17 12:03:40;;;;;;;1.35;0.70;;;5.90;99.90;;;;;;4999781;28;20011;-78
2022/01/17 12:06:32;;;;;;;1.50;0.93;;;5.90;99.90;;;;;;5001726;28;20035;-78
2022/01/17 12:09:21;;;;;;;1.10;0.60;;;6.10;99.90;;;;;;5000817;28;20376;-77
2022/01/17 12:11:52;;;;;;;2.33;0.90;;;6.00;99.90;;;;;;5036420;23;20066;-78
2022/01/17 12:14:30;;;;;;;2.33;1.10;;;6.10;99.90;;;;;;5033131;28;20021;-78
2022/01/17 12:17:24;;;;;;;0.73;0.70;;;6.10;99.90;;;;;;5041070;28;20080;-78
2022/01/17 12:20:09;;;;;;;0.70;0.65;;;6.20;99.90;;;;;;5041177;28;20021;-78
2022/01/17 12:23:10;;;;;;;0.57;0.57;;;6.30;99.90;;;;;;5041711;28;20002;-78
2022/01/17 12:29:12;;;;;;;0.57;0.57;;;6.50;99.90;;;;;;5030546;28;20028;-78
2022/01/17 12:31:48;;;;;;;0.85;0.50;;;6.50;99.90;;;;;;5039473;28;20030;-78
2022/01/17 12:34:16;;;;;;;0.73;0.73;;;6.60;99.90;;;;;;5039995;28;20077;-78
2022/01/17 12:36:42;;;;;;;1.42;1.00;;;6.50;99.90;;;;;;5040115;28;20016;-78
2022/01/17 12:39:20;;;;;;;1.05;0.90;;;6.50;99.90;;;;;;5039738;28;20014;-78
2022/01/17 12:42:05;;;;;;;0.77;0.50;;;6.60;99.90;;;;;;5040335;28;20060;-78
2022/01/17 12:44:39;;;;;;;0.43;0.43;;;6.70;99.90;;;;;;5040937;28;20017;-78
2022/01/17 12:47:49;;;;;;;0.60;0.60;;;6.60;99.90;;;;;;5040949;28;20029;-77
2022/01/17 12:50:14;;;;;;;0.73;0.73;;;6.50;99.90;;;;;;5038840;28;20026;-78
2022/01/17 12:52:56;;;;;;;0.70;0.70;;;6.50;99.90;;;;;;5039445;28;20078;-78
2022/01/17 12:55:39;;;;;;;0.35;0.35;;;6.50;99.90;;;;;;5041354;28;20013;-78
2022/01/17 12:58:51;;;;;;;0.75;0.60;;;6.80;99.90;;;;;;5040223;28;20032;-78
2022/01/17 13:01:18;;;;;;;0.68;0.68;;;6.90;99.90;;;;;;5039793;28;20192;-79
2022/01/17 13:04:11;;;;;;;2.38;1.00;;;6.90;99.90;;;;;;5039787;28;20013;-77
2022/01/17 13:07:01;;;;;;;1.58;1.38;;;6.70;99.90;;;;;;5040559;28;20021;-78
2022/01/17 13:09:51;;;;;;;3.45;1.60;;;6.50;99.90;;;;;;5039790;28;20030;-78
2022/01/17 13:12:17;;;;;;;2.28;1.65;;;6.50;99.90;;;;;;5039807;28;20066;-79
2022/01/17 13:15:12;;;;;;;4.05;1.65;;;6.50;99.90;;;;;;5039704;28;20010;-78
2022/01/17 13:17:58;;;;;;;4.03;1.63;;;6.30;99.90;;;;;;5039279;28;20053;-78
2022/01/17 13:20:50;;;;;;;2.72;1.65;;;6.40;99.90;;;;;;5034682;28;20070;-78
2022/01/17 13:23:29;;;;;;;3.90;2.70;;;6.30;99.90;;;;;;5036410;28;20014;-78
2022/01/17 13:25:59;;;;;;;4.63;2.65;;;6.40;99.90;;;;;;5038511;28;20038;-79
2022/01/17 13:28:31;;;;;;;3.75;2.47;;;6.40;99.90;;;;;;5039435;28;20018;-77
2022/01/17 13:30:57;;;;;;;5.35;2.70;;;;;;;;;;5042717;23;20049;-78
2022/01/17 13:33:23;;;;;;;4.00;2.05;;;;;;;;;;5000663;28;20015;-78
2022/01/17 13:36:20;;;;;;;3.80;2.08;;;6.60;99.90;;;;;;5000589;28;20118;-78
2022/01/17 13:39:18;;;;;;;6.18;2.58;;;6.70;99.90;;;;;;5000728;28;20027;-78
2022/01/17 13:41:50;;;;;;;8.43;3.20;;;6.60;99.90;;;;;;4999938;28;20011;-78
2022/01/17 13:44:47;;;;;;;8.55;4.20;;;6.50;99.90;;;;;;5000524;28;20039;-78